Terminal Aerodrome Forecast
Issued by NWS

Home | Current Version | Previous Version | Text Only | Print | Product List | Glossary On
Versions: 1 2 3 4 5 6 7 8 9 10 11 12
000
FTUS43 KLSX 210500
TAFCPS
TAF
KCPS 210520Z 2106/2206 15005KT P6SM SCT150 BKN250
     FM211200 21006KT P6SM VCSH FEW060 SCT120
     FM211800 24008KT 5SM -SHRA VCTS SCT060CB BKN120
     FM220300 29008KT P6SM SCT060 BKN100=

USA.gov is the U.S. government's official web portal to all federal, state and local government web resources and services.